Time;durP1;ratioP1;P1;durP2;ratioP2;P2;SDS_P1;SDS_P2;PMS_P1;PMS_P2;Temp;Humidity;BMP_temperature;BMP_pressure;BME280_temperature;BME280_humidity;BME280_pressure;Samples;Min_cycle;Max_cycle;Signal;HPM_P1;HPM_P2
2021/08/24 00:02:13;;;;;;;2.17;1.97;;;13.30;99.90;;;;;;5075636;28;20177;-88
2021/08/24 00:04:39;;;;;;;2.07;1.87;;;13.20;99.90;;;;;;5076040;28;20326;-89
2021/08/24 00:07:05;;;;;;;2.10;1.90;;;13.10;99.90;;;;;;5077802;28;20201;-89
2021/08/24 00:09:34;;;;;;;1.90;1.70;;;13.10;99.90;;;;;;5076580;28;20181;-89
2021/08/24 00:12:00;;;;;;;2.53;2.33;;;13.20;99.90;;;;;;5076644;28;20226;-88
2021/08/24 00:14:25;;;;;;;2.53;2.20;;;13.20;99.90;;;;;;5076543;28;20209;-89
2021/08/24 00:16:51;;;;;;;2.43;1.93;;;13.30;99.90;;;;;;5076396;28;20731;-88
2021/08/24 00:19:17;;;;;;;2.27;2.00;;;13.30;99.90;;;;;;5080040;28;20639;-88
2021/08/24 00:21:43;;;;;;;2.77;2.33;;;13.30;99.90;;;;;;5076136;28;20173;-88
2021/08/24 00:24:11;;;;;;;2.07;1.87;;;13.30;99.90;;;;;;5083148;28;20177;-88
2021/08/24 00:26:37;;;;;;;3.60;2.07;;;13.30;99.90;;;;;;5097003;28;20202;-88
2021/08/24 00:29:03;;;;;;;2.43;2.17;;;13.30;99.90;;;;;;5098092;28;20189;-88
2021/08/24 00:31:29;;;;;;;3.23;2.77;;;13.20;99.90;;;;;;5082498;28;20180;-88
2021/08/24 00:33:55;;;;;;;2.40;2.20;;;13.20;99.90;;;;;;5074677;28;20212;-89
2021/08/24 00:36:22;;;;;;;3.77;2.50;;;13.20;99.90;;;;;;5074876;28;20180;-88
2021/08/24 00:38:48;;;;;;;2.53;2.20;;;13.20;99.90;;;;;;5074333;28;20335;-88
2021/08/24 00:41:14;;;;;;;3.07;2.20;;;13.10;99.90;;;;;;5076090;28;20177;-88
2021/08/24 00:43:43;;;;;;;2.33;2.07;;;13.10;99.90;;;;;;5074554;28;20184;-89
2021/08/24 00:46:30;;;;;;;2.50;2.30;;;13.10;99.90;;;;;;5075854;28;20208;-88
2021/08/24 00:49:04;;;;;;;4.33;2.20;;;13.10;99.90;;;;;;5074716;28;20177;-88
2021/08/24 00:51:32;;;;;;;2.57;2.23;;;13.10;99.90;;;;;;5075816;28;20168;-88
2021/08/24 00:53:58;;;;;;;3.73;2.40;;;13.20;99.90;;;;;;5074588;28;20693;-88
2021/08/24 00:56:25;;;;;;;3.07;2.50;;;13.20;99.90;;;;;;5074295;28;20180;-88
2021/08/24 00:58:50;;;;;;;2.60;2.40;;;13.20;99.90;;;;;;5074414;28;20203;-88
2021/08/24 01:01:16;;;;;;;5.20;2.27;;;13.20;99.90;;;;;;5076736;28;20173;-88
2021/08/24 01:03:46;;;;;;;3.97;2.87;;;13.20;99.90;;;;;;5094524;28;20157;-88
2021/08/24 01:06:12;;;;;;;6.23;2.63;;;13.20;99.90;;;;;;5076556;28;20168;-88
2021/08/24 01:09:05;;;;;;;3.77;2.77;;;13.10;99.90;;;;;;5074117;28;20204;-88
2021/08/24 01:11:34;;;;;;;3.07;2.77;;;13.10;99.90;;;;;;5074343;28;20244;-88
2021/08/24 01:14:18;;;;;;;4.00;3.00;;;13.20;99.90;;;;;;5074124;28;20759;-88
2021/08/24 01:16:48;;;;;;;4.13;2.63;;;13.20;99.90;;;;;;5074114;28;20173;-88
2021/08/24 01:19:32;;;;;;;4.07;2.90;;;13.20;99.90;;;;;;5074066;28;20511;-88
2021/08/24 01:22:35;;;;;;;3.10;2.63;;;13.10;99.90;;;;;;5073871;28;20173;-88
2021/08/24 01:25:20;;;;;;;3.13;2.83;;;13.20;99.90;;;;;;5074273;28;20272;-88
2021/08/24 01:27:54;;;;;;;3.93;2.63;;;13.10;99.90;;;;;;5073787;28;20579;-89
2021/08/24 01:30:54;;;;;;;2.97;2.50;;;13.20;99.90;;;;;;5074085;28;20172;-88
2021/08/24 01:33:28;;;;;;;4.07;2.80;;;13.20;99.90;;;;;;5088833;28;20161;-89
2021/08/24 01:36:05;;;;;;;2.90;2.17;;;13.30;99.90;;;;;;5073713;28;20629;-88
2021/08/24 01:38:37;;;;;;;3.33;2.70;;;13.40;99.90;;;;;;5073446;28;20735;-88
2021/08/24 01:41:08;;;;;;;2.57;2.30;;;13.30;99.90;;;;;;5073332;28;20260;-88
2021/08/24 01:43:48;;;;;;;2.63;2.43;;;13.30;99.90;;;;;;5074791;28;20173;-89
2021/08/24 01:46:32;;;;;;;2.50;2.23;;;13.30;99.90;;;;;;5075122;28;20169;-89
2021/08/24 01:49:02;;;;;;;8.17;2.70;;;13.40;99.90;;;;;;5073753;28;20267;-88
2021/08/24 01:51:35;;;;;;;2.73;2.53;;;13.40;99.90;;;;;;5073427;28;20184;-88
2021/08/24 01:54:09;;;;;;;3.27;2.77;;;13.40;99.90;;;;;;5074572;28;20259;-89
2021/08/24 01:56:38;;;;;;;2.80;2.60;;;13.50;99.90;;;;;;5074621;28;20161;-89
2021/08/24 01:59:30;;;;;;;2.80;2.50;;;13.40;99.90;;;;;;5074811;28;20165;-89
2021/08/24 02:02:07;;;;;;;3.43;2.80;;;13.50;99.90;;;;;;5072960;28;20280;-88
2021/08/24 02:04:44;;;;;;;3.17;2.87;;;13.30;99.90;;;;;;5073653;28;20708;-88
2021/08/24 02:07:10;;;;;;;5.80;3.27;;;13.30;99.90;;;;;;5074925;28;20283;-88
2021/08/24 02:09:47;;;;;;;3.47;3.17;;;13.20;99.90;;;;;;5077401;28;20176;-88
2021/08/24 02:12:14;;;;;;;6.27;3.13;;;13.20;99.90;;;;;;5077493;28;20168;-88
2021/08/24 02:14:41;;;;;;;3.63;3.20;;;13.20;99.90;;;;;;5087121;28;20231;-88
2021/08/24 02:17:10;;;;;;;3.57;3.27;;;13.20;99.90;;;;;;5099117;28;20217;-88
2021/08/24 02:19:54;;;;;;;3.87;3.37;;;13.20;99.90;;;;;;5099075;28;20153;-89
2021/08/24 02:22:29;;;;;;;3.77;3.43;;;13.20;99.90;;;;;;5078196;28;20259;-88
2021/08/24 02:25:03;;;;;;;3.47;3.17;;;13.30;99.90;;;;;;5078414;28;20225;-89
2021/08/24 02:27:32;;;;;;;5.37;3.33;;;13.30;99.90;;;;;;5078715;28;20196;-88
2021/08/24 02:29:58;;;;;;;5.03;3.40;;;13.20;99.90;;;;;;5079311;28;20181;-88
2021/08/24 02:32:34;;;;;;;4.67;4.00;;;13.20;99.90;;;;;;5079741;28;20177;-89
2021/08/24 02:35:03;;;;;;;3.83;3.43;;;13.00;99.90;;;;;;5087132;28;20185;-89
2021/08/24 02:37:49;;;;;;;4.00;3.60;;;12.90;99.90;;;;;;5091533;28;20287;-88
2021/08/24 02:40:24;;;;;;;3.70;3.40;;;12.90;99.90;;;;;;5094079;28;20206;-88
2021/08/24 02:43:13;;;;;;;4.23;3.83;;;12.90;99.90;;;;;;5083962;28;20208;-88
2021/08/24 02:45:59;;;;;;;5.73;4.17;;;12.90;99.90;;;;;;5076842;28;20169;-88
2021/08/24 02:48:26;;;;;;;4.63;4.00;;;12.90;99.90;;;;;;5093229;28;20204;-88
2021/08/24 02:50:53;;;;;;;5.10;4.23;;;12.90;99.90;;;;;;5077701;28;20560;-88
2021/08/24 02:53:21;;;;;;;4.50;4.10;;;12.90;99.90;;;;;;5076205;28;20541;-88
2021/08/24 02:55:48;;;;;;;4.30;3.90;;;13.00;99.90;;;;;;5077489;28;20179;-88
2021/08/24 02:58:14;;;;;;;4.10;3.70;;;13.00;99.90;;;;;;5076227;28;20204;-88
2021/08/24 03:00:40;;;;;;;4.43;3.70;;;13.10;99.90;;;;;;5076216;28;20183;-88
2021/08/24 03:03:05;;;;;;;3.93;3.53;;;13.00;99.90;;;;;;5076082;28;20180;-88
2021/08/24 03:05:31;;;;;;;4.53;3.67;;;13.00;99.90;;;;;;5077343;28;20515;-88
2021/08/24 03:07:57;;;;;;;5.33;3.33;;;13.00;99.90;;;;;;5075892;28;20295;-88
2021/08/24 03:10:25;;;;;;;4.00;3.60;;;13.00;99.90;;;;;;5075959;28;20199;-88
2021/08/24 03:13:19;;;;;;;5.27;3.50;;;13.00;99.90;;;;;;5076110;28;20707;-88
2021/08/24 03:16:20;;;;;;;4.43;3.40;;;13.00;99.90;;;;;;5076029;28;20711;-88
2021/08/24 03:18:55;;;;;;;4.23;3.47;;;13.00;99.90;;;;;;5075933;28;20242;-88
2021/08/24 03:21:24;;;;;;;3.43;2.97;;;13.00;99.90;;;;;;5075837;28;20168;-88
2021/08/24 03:23:52;;;;;;;6.97;3.37;;;13.00;99.90;;;;;;5075881;28;20635;-88
2021/08/24 03:26:28;;;;;;;5.03;3.53;;;13.00;99.90;;;;;;5075797;28;20687;-88
2021/08/24 03:28:54;;;;;;;5.70;3.50;;;12.90;99.90;;;;;;5076783;28;20309;-88
2021/08/24 03:31:21;;;;;;;4.33;3.30;;;12.80;99.90;;;;;;5076683;28;20537;-88
2021/08/24 03:33:47;;;;;;;3.93;2.90;;;12.90;99.90;;;;;;5075310;28;20212;-88
2021/08/24 03:36:13;;;;;;;4.37;3.77;;;12.90;99.90;;;;;;5075364;28;20643;-88
2021/08/24 03:38:40;;;;;;;3.70;3.30;;;12.90;99.90;;;;;;5076620;28;20242;-88
2021/08/24 03:41:09;;;;;;;3.30;3.00;;;12.90;99.90;;;;;;5076176;28;20180;-88
2021/08/24 03:43:35;;;;;;;3.43;2.97;;;12.90;99.90;;;;;;5076098;28;20518;-88
2021/08/24 03:46:02;;;;;;;5.17;3.03;;;12.80;99.90;;;;;;5076965;28;20186;-89
2021/08/24 03:48:28;;;;;;;3.70;2.77;;;12.80;99.90;;;;;;5079434;28;20212;-89
2021/08/24 03:50:54;;;;;;;3.80;3.10;;;12.70;99.90;;;;;;5080389;28;20263;-88
2021/08/24 03:53:19;;;;;;;3.13;2.83;;;12.60;99.90;;;;;;5092200;28;20186;-89
2021/08/24 03:55:45;;;;;;;4.07;3.10;;;12.50;99.90;;;;;;5081540;28;20555;-88
2021/08/24 03:58:12;;;;;;;3.27;2.70;;;12.50;99.90;;;;;;5080571;28;20330;-89
2021/08/24 04:00:43;;;;;;;4.53;3.23;;;12.60;99.90;;;;;;5080597;28;20183;-89
2021/08/24 04:03:08;;;;;;;6.10;3.83;;;12.60;99.90;;;;;;5079218;28;20166;-88
2021/08/24 04:05:34;;;;;;;3.90;3.27;;;12.70;99.90;;;;;;5080354;28;20234;-89
2021/08/24 04:08:00;;;;;;;4.27;3.23;;;12.70;99.90;;;;;;5085363;28;20219;-88
2021/08/24 04:10:26;;;;;;;4.00;2.90;;;12.80;99.90;;;;;;5080441;28;20510;-89
2021/08/24 04:12:51;;;;;;;3.17;2.60;;;12.90;99.90;;;;;;5080907;28;20191;-88
2021/08/24 04:15:17;;;;;;;3.43;2.70;;;12.80;99.90;;;;;;5082348;28;20200;-89
2021/08/24 04:17:43;;;;;;;3.80;3.00;;;12.90;99.90;;;;;;5091449;28;20215;-89
2021/08/24 04:20:12;;;;;;;3.93;3.40;;;12.90;99.90;;;;;;5097682;28;20173;-88
2021/08/24 04:22:43;;;;;;;3.50;2.60;;;13.00;99.90;;;;;;5096245;28;20179;-89
2021/08/24 04:25:10;;;;;;;4.80;2.63;;;13.00;99.90;;;;;;5076250;28;20172;-87
2021/08/24 04:27:36;;;;;;;3.10;2.70;;;12.90;99.90;;;;;;5078377;28;20204;-89
2021/08/24 04:30:04;;;;;;;4.23;3.53;;;12.90;99.90;;;;;;5076061;28;20181;-88
2021/08/24 04:32:30;;;;;;;5.00;3.50;;;12.90;99.90;;;;;;5078091;28;20181;-89
2021/08/24 04:34:56;;;;;;;5.93;3.20;;;12.90;99.90;;;;;;5077001;28;20291;-89
2021/08/24 04:37:22;;;;;;;4.30;3.20;;;12.90;99.90;;;;;;5075901;28;20212;-87
2021/08/24 04:39:48;;;;;;;3.63;3.27;;;12.90;99.90;;;;;;5074512;28;20200;-87
2021/08/24 04:42:14;;;;;;;6.17;3.40;;;12.90;99.90;;;;;;5075002;28;20551;-87
2021/08/24 04:44:40;;;;;;;5.17;3.40;;;12.80;99.90;;;;;;5075699;28;20207;-87
2021/08/24 04:47:06;;;;;;;5.03;3.60;;;12.90;99.90;;;;;;5077091;28;20662;-87
2021/08/24 04:49:32;;;;;;;5.23;3.47;;;12.80;99.90;;;;;;5077533;28;20183;-87
2021/08/24 04:51:58;;;;;;;5.83;3.93;;;12.70;99.90;;;;;;5094532;28;20184;-87
2021/08/24 04:54:23;;;;;;;5.27;3.40;;;12.70;99.90;;;;;;5096554;28;20200;-87
2021/08/24 04:56:49;;;;;;;4.87;3.30;;;12.70;99.90;;;;;;5074782;28;20591;-87
2021/08/24 04:59:15;;;;;;;5.93;4.27;;;12.80;99.90;;;;;;5074487;28;20200;-87
2021/08/24 05:01:41;;;;;;;5.53;3.63;;;12.80;99.90;;;;;;5075787;28;20168;-89
2021/08/24 05:04:06;;;;;;;6.57;3.50;;;12.80;99.90;;;;;;5075431;28;20176;-87
2021/08/24 05:06:33;;;;;;;5.50;3.87;;;12.70;99.90;;;;;;5075268;28;20179;-87
2021/08/24 05:08:58;;;;;;;5.97;4.27;;;12.70;99.90;;;;;;5075609;28;20525;-87
2021/08/24 05:11:25;;;;;;;4.83;3.53;;;12.70;99.90;;;;;;5075446;28;20310;-87
2021/08/24 05:13:50;;;;;;;6.10;3.77;;;12.80;99.90;;;;;;5065224;28;20227;-87
2021/08/24 05:16:16;;;;;;;9.87;4.00;;;12.70;99.90;;;;;;5056926;28;20184;-87
2021/08/24 05:18:42;;;;;;;8.80;3.90;;;;;;;;;;5054637;28;20659;-87
2021/08/24 05:21:15;;;;;;;7.87;4.30;;;12.80;99.90;;;;;;5054604;28;20651;-87
2021/08/24 05:23:41;;;;;;;5.13;3.80;;;12.80;99.90;;;;;;5054690;28;20181;-87
2021/08/24 05:26:08;;;;;;;6.80;3.83;;;12.80;99.90;;;;;;5054587;28;20184;-87
2021/08/24 05:28:34;;;;;;;7.27;4.10;;;12.70;99.90;;;;;;5054121;28;20572;-89
2021/08/24 05:31:00;;;;;;;5.47;4.33;;;12.80;99.90;;;;;;5056016;28;20267;-87
2021/08/24 05:33:25;;;;;;;4.90;4.17;;;12.80;99.90;;;;;;5054230;28;20185;-87
2021/08/24 05:35:51;;;;;;;4.80;3.83;;;12.80;99.90;;;;;;5070749;28;20207;-87
2021/08/24 05:38:16;;;;;;;4.40;3.80;;;12.80;99.90;;;;;;5059330;28;20204;-87
2021/08/24 05:40:42;;;;;;;5.00;4.07;;;12.80;99.90;;;;;;5061369;28;20189;-87
2021/08/24 05:43:08;;;;;;;6.57;4.57;;;12.80;99.90;;;;;;5054724;28;20168;-87
2021/08/24 05:45:34;;;;;;;7.10;4.30;;;12.80;99.90;;;;;;5054893;28;20173;-87
2021/08/24 05:47:59;;;;;;;6.20;4.40;;;12.90;99.90;;;;;;5071241;28;20246;-87
2021/08/24 05:50:26;;;;;;;5.57;3.90;;;12.90;99.90;;;;;;5054598;28;20177;-87
2021/08/24 05:52:52;;;;;;;11.33;3.60;;;12.90;99.90;;;;;;5055657;28;20176;-87
2021/08/24 05:55:18;;;;;;;10.83;4.10;;;12.90;99.90;;;;;;5054938;28;20673;-87
2021/08/24 05:57:44;;;;;;;6.33;4.00;;;12.80;99.90;;;;;;5054629;28;20204;-87
2021/08/24 06:00:10;;;;;;;6.10;4.17;;;12.70;99.90;;;;;;5054948;28;20184;-87
2021/08/24 06:02:38;;;;;;;5.30;4.00;;;12.70;99.90;;;;;;5055470;28;20169;-87
2021/08/24 06:05:08;;;;;;;5.63;3.83;;;12.70;99.90;;;;;;5055559;28;20181;-87
2021/08/24 06:07:37;;;;;;;7.10;4.23;;;12.80;99.90;;;;;;5055290;28;20255;-87
2021/08/24 06:10:03;;;;;;;7.50;4.43;;;12.80;99.90;;;;;;5055026;28;20200;-88
2021/08/24 06:12:29;;;;;;;6.97;4.40;;;12.80;99.90;;;;;;5054386;28;20177;-87
2021/08/24 06:14:54;;;;;;;7.57;4.10;;;12.80;99.90;;;;;;5053929;28;20213;-88
2021/08/24 06:17:20;;;;;;;6.03;4.00;;;12.80;99.90;;;;;;5055623;28;20189;-88
2021/08/24 06:19:46;;;;;;;4.97;3.97;;;12.80;99.90;;;;;;5073645;28;20182;-88
2021/08/24 06:22:11;;;;;;;12.20;4.13;;;12.80;99.90;;;;;;5077147;28;20189;-87
2021/08/24 06:24:38;;;;;;;6.73;4.40;;;12.80;99.90;;;;;;5072742;28;20192;-87
2021/08/24 06:27:05;;;;;;;5.87;3.90;;;12.80;99.90;;;;;;5054067;28;20201;-88
2021/08/24 06:29:32;;;;;;;6.87;4.70;;;12.80;99.90;;;;;;5054991;28;20578;-88
2021/08/24 06:32:00;;;;;;;8.73;4.60;;;12.70;99.90;;;;;;5053732;28;20188;-87
2021/08/24 06:34:26;;;;;;;6.03;4.30;;;12.70;99.90;;;;;;5053827;28;20209;-87
2021/08/24 06:36:52;;;;;;;9.23;4.30;;;12.70;99.90;;;;;;5053811;28;20217;-88
2021/08/24 06:39:19;;;;;;;6.83;4.17;;;12.60;99.90;;;;;;5070637;28;20205;-87
2021/08/24 06:41:45;;;;;;;8.93;5.00;;;12.60;99.90;;;;;;5071252;28;20577;-87
2021/08/24 06:44:12;;;;;;;9.67;4.93;;;12.60;99.90;;;;;;5054218;28;20178;-87
2021/08/24 06:46:39;;;;;;;7.03;4.87;;;12.40;99.90;;;;;;5054555;28;20180;-87
2021/08/24 06:49:05;;;;;;;7.43;4.63;;;12.40;99.90;;;;;;5054821;28;20203;-90
2021/08/24 06:51:31;;;;;;;7.60;4.87;;;12.40;99.90;;;;;;5054816;28;20170;-90
2021/08/24 06:53:57;;;;;;;11.70;5.90;;;12.50;99.90;;;;;;5055358;28;20212;-90
2021/08/24 06:56:23;;;;;;;10.43;5.17;;;12.50;99.90;;;;;;5058510;28;20218;-87
2021/08/24 06:58:49;;;;;;;9.40;5.43;;;12.50;99.90;;;;;;5057146;28;20603;-88
2021/08/24 07:01:21;;;;;;;7.27;4.97;;;12.50;99.90;;;;;;5057415;28;20170;-87
2021/08/24 07:03:47;;;;;;;7.00;5.23;;;12.40;99.90;;;;;;5058017;28;20178;-88
2021/08/24 07:06:14;;;;;;;8.67;5.43;;;12.50;99.90;;;;;;5060125;28;20189;-87
2021/08/24 07:08:40;;;;;;;9.50;5.20;;;12.50;99.90;;;;;;5057855;28;20197;-88
2021/08/24 07:11:06;;;;;;;9.10;4.87;;;12.60;99.90;;;;;;5059245;28;20650;-87
2021/08/24 07:13:33;;;;;;;8.03;5.37;;;12.60;99.90;;;;;;5056760;28;20184;-87
2021/08/24 07:16:00;;;;;;;8.63;5.37;;;12.60;99.90;;;;;;5056693;28;20574;-88
2021/08/24 07:18:25;;;;;;;13.17;5.37;;;12.60;99.90;;;;;;5058143;28;20195;-88
2021/08/24 07:20:53;;;;;;;6.87;5.07;;;12.60;99.90;;;;;;5057019;28;20173;-88
2021/08/24 07:23:19;;;;;;;8.70;4.90;;;12.60;99.90;;;;;;5059418;28;20196;-88
2021/08/24 07:25:45;;;;;;;6.73;5.23;;;12.60;99.90;;;;;;5058318;28;20177;-87
2021/08/24 07:28:11;;;;;;;13.40;5.67;;;12.70;99.90;;;;;;5057723;28;20246;-88
2021/08/24 07:30:40;;;;;;;6.43;5.10;;;12.80;99.90;;;;;;5056230;28;20268;-88
2021/08/24 07:33:06;;;;;;;6.73;4.77;;;12.80;99.90;;;;;;5056336;28;20324;-88
2021/08/24 07:35:32;;;;;;;8.43;5.17;;;12.80;99.90;;;;;;5062168;28;20742;-88
2021/08/24 07:37:57;;;;;;;7.77;4.83;;;12.90;99.90;;;;;;5080030;28;20189;-88
2021/08/24 07:40:23;;;;;;;5.37;4.13;;;12.90;99.90;;;;;;5083377;28;20185;-88
2021/08/24 07:42:49;;;;;;;6.47;4.80;;;12.90;99.90;;;;;;5073433;28;20685;-90
2021/08/24 07:45:15;;;;;;;6.77;4.40;;;13.00;99.90;;;;;;5065820;28;20223;-88
2021/08/24 07:47:41;;;;;;;8.00;4.47;;;13.00;99.90;;;;;;5056575;28;20197;-88
2021/08/24 07:50:07;;;;;;;7.83;4.90;;;13.00;99.90;;;;;;5056095;28;20170;-88
2021/08/24 07:52:32;;;;;;;8.47;4.30;;;13.10;99.90;;;;;;5055756;28;20180;-88
2021/08/24 07:54:58;;;;;;;7.63;4.50;;;13.00;99.90;;;;;;5056365;28;20255;-88
2021/08/24 07:57:24;;;;;;;5.17;3.73;;;13.00;99.90;;;;;;5056346;28;20193;-88
2021/08/24 07:59:49;;;;;;;6.03;4.17;;;13.10;99.90;;;;;;5057000;28;20284;-88
2021/08/24 08:02:16;;;;;;;5.93;4.50;;;13.10;99.90;;;;;;5057442;28;20182;-89
2021/08/24 08:04:42;;;;;;;7.03;4.77;;;13.20;99.90;;;;;;5056100;28;20264;-87
2021/08/24 08:07:09;;;;;;;6.67;4.43;;;13.30;99.90;;;;;;5056714;28;20602;-88
2021/08/24 08:09:34;;;;;;;5.50;3.70;;;13.30;99.90;;;;;;5056885;28;20643;-88
2021/08/24 08:12:00;;;;;;;6.57;4.47;;;13.40;99.90;;;;;;5057921;28;20177;-88
2021/08/24 08:14:26;;;;;;;6.63;4.20;;;13.40;99.90;;;;;;5060191;28;20209;-88
2021/08/24 08:16:52;;;;;;;6.63;4.60;;;13.30;99.90;;;;;;5069374;28;20202;-88
2021/08/24 08:19:17;;;;;;;6.33;4.50;;;13.30;99.90;;;;;;5069518;28;20250;-88
2021/08/24 08:21:43;;;;;;;6.87;4.20;;;13.20;99.90;;;;;;5068029;28;20173;-88
2021/08/24 08:24:09;;;;;;;4.93;4.07;;;13.20;99.90;;;;;;5056918;28;20745;-88
2021/08/24 08:26:37;;;;;;;7.70;4.60;;;13.30;99.90;;;;;;5057020;28;20188;-88
2021/08/24 08:29:09;;;;;;;6.90;4.23;;;13.30;99.90;;;;;;5057098;28;20251;-87
2021/08/24 08:31:36;;;;;;;7.87;4.67;;;13.40;99.90;;;;;;5056916;28;20204;-88
2021/08/24 08:34:02;;;;;;;5.47;4.17;;;13.50;99.90;;;;;;5056087;28;20205;-88
2021/08/24 08:36:28;;;;;;;4.73;3.40;;;13.40;99.90;;;;;;5055742;28;20173;-88
2021/08/24 08:38:54;;;;;;;5.93;4.47;;;13.50;99.90;;;;;;5056629;28;20209;-88
2021/08/24 08:41:29;;;;;;;5.73;4.23;;;13.60;99.90;;;;;;5059632;28;20257;-88
2021/08/24 08:44:03;;;;;;;5.13;3.87;;;13.60;99.90;;;;;;5078079;28;20184;-88
2021/08/24 08:46:51;;;;;;;5.03;4.13;;;13.50;99.90;;;;;;5076423;28;20235;-88
2021/08/24 08:49:51;;;;;;;6.27;4.23;;;13.50;99.90;;;;;;5055671;28;20223;-88
2021/08/24 08:52:42;;;;;;;6.07;4.53;;;13.50;99.90;;;;;;5058134;28;20178;-89
2021/08/24 08:55:35;;;;;;;6.60;4.60;;;13.50;99.90;;;;;;5056770;28;20422;-89
2021/08/24 08:58:27;;;;;;;5.53;4.67;;;13.60;99.90;;;;;;5054256;28;20236;-89
2021/08/24 09:01:03;;;;;;;8.30;4.63;;;13.60;99.90;;;;;;5071542;28;20173;-89
2021/08/24 09:03:44;;;;;;;5.87;4.67;;;13.70;99.90;;;;;;5054521;28;20945;-89
2021/08/24 09:06:11;;;;;;;7.47;5.00;;;13.70;99.90;;;;;;5055621;28;20687;-89
2021/08/24 09:08:38;;;;;;;7.00;5.30;;;13.70;99.90;;;;;;5071114;28;20204;-89
2021/08/24 09:11:07;;;;;;;5.77;5.00;;;13.80;99.90;;;;;;5056023;28;20188;-89
2021/08/24 09:13:44;;;;;;;5.60;4.97;;;13.70;99.90;;;;;;5054999;28;20178;-89
2021/08/24 09:16:28;;;;;;;5.57;4.83;;;13.70;99.90;;;;;;5054917;28;20261;-89
2021/08/24 09:19:18;;;;;;;5.67;4.50;;;13.70;99.90;;;;;;5055813;28;20189;-90
2021/08/24 09:21:46;;;;;;;6.83;4.40;;;13.70;99.90;;;;;;5076093;28;20177;-89
2021/08/24 09:24:17;;;;;;;7.07;4.67;;;13.70;99.90;;;;;;5054521;28;20184;-89
2021/08/24 09:26:49;;;;;;;6.03;4.47;;;13.80;99.90;;;;;;5054595;28;20181;-89
2021/08/24 09:29:26;;;;;;;5.20;4.57;;;13.80;99.90;;;;;;5054416;28;20181;-89
2021/08/24 09:31:52;;;;;;;5.03;4.53;;;13.90;99.90;;;;;;5055086;28;20173;-89
2021/08/24 09:34:32;;;;;;;4.73;4.23;;;13.90;99.90;;;;;;5071325;28;20205;-89
2021/08/24 09:36:57;;;;;;;4.67;3.97;;;13.80;99.90;;;;;;5055025;28;20194;-89
2021/08/24 09:39:56;;;;;;;6.80;3.97;;;13.90;99.90;;;;;;5054892;28;20213;-89
2021/08/24 09:42:36;;;;;;;4.73;3.60;;;13.90;99.90;;;;;;5055934;28;20198;-89
2021/08/24 09:45:19;;;;;;;4.17;3.67;;;14.00;99.90;;;;;;5055244;28;20169;-89
2021/08/24 09:47:57;;;;;;;3.83;3.43;;;14.00;99.90;;;;;;5056064;28;20197;-89
2021/08/24 09:50:39;;;;;;;7.47;3.70;;;14.00;99.90;;;;;;5055242;28;20189;-89
2021/08/24 09:53:11;;;;;;;3.83;3.43;;;14.00;99.90;;;;;;5054676;28;20180;-89
2021/08/24 09:55:46;;;;;;;4.40;4.00;;;14.00;99.90;;;;;;5054577;28;20667;-89
2021/08/24 09:58:32;;;;;;;4.50;4.00;;;14.00;99.90;;;;;;5054620;28;20193;-90
2021/08/24 10:01:03;;;;;;;4.77;3.77;;;14.10;99.90;;;;;;5056440;28;20166;-89
2021/08/24 10:03:31;;;;;;;5.07;4.03;;;14.30;99.90;;;;;;5054760;28;20586;-89
2021/08/24 10:06:30;;;;;;;4.47;3.53;;;15.00;99.90;;;;;;5055007;28;20213;-90
2021/08/24 10:09:14;;;;;;;3.90;3.50;;;15.60;99.90;;;;;;5063147;28;20206;-90
2021/08/24 10:11:41;;;;;;;4.60;3.33;;;15.90;99.90;;;;;;5065114;28;20181;-90
2021/08/24 10:14:12;;;;;;;4.53;3.10;;;16.00;99.90;;;;;;5064702;28;20201;-90
2021/08/24 10:16:40;;;;;;;4.23;3.33;;;16.10;99.90;;;;;;5067988;28;20189;-90
2021/08/24 10:19:12;;;;;;;3.43;2.93;;;16.10;99.90;;;;;;5069293;28;20168;-90
2021/08/24 10:21:51;;;;;;;4.43;2.90;;;16.20;99.90;;;;;;5057654;28;20154;-90
2021/08/24 10:24:32;;;;;;;4.13;2.90;;;16.40;99.90;;;;;;5056773;28;20162;-90
2021/08/24 10:27:01;;;;;;;3.97;2.63;;;16.40;99.90;;;;;;5053679;28;20225;-90
2021/08/24 10:29:31;;;;;;;5.27;3.33;;;16.30;99.90;;;;;;5069074;28;20176;-90
2021/08/24 10:32:04;;;;;;;3.07;2.77;;;16.10;99.90;;;;;;5077401;28;20181;-90
2021/08/24 10:34:35;;;;;;;3.03;2.73;;;16.00;99.90;;;;;;5058231;28;20201;-90
2021/08/24 10:37:24;;;;;;;3.73;2.33;;;15.90;99.90;;;;;;5057423;28;20201;-90
2021/08/24 10:39:55;;;;;;;2.70;2.40;;;15.80;99.90;;;;;;5057212;28;20228;-89
2021/08/24 10:42:30;;;;;;;3.20;2.70;;;15.70;99.90;;;;;;5057047;28;20173;-90
2021/08/24 10:45:16;;;;;;;5.97;2.53;;;15.70;99.90;;;;;;5057120;28;20183;-90
2021/08/24 10:47:55;;;;;;;2.93;2.10;;;15.80;99.90;;;;;;5057062;28;20209;-90
2021/08/24 10:50:26;;;;;;;2.50;2.23;;;16.00;99.90;;;;;;5056876;28;20247;-90
2021/08/24 10:53:12;;;;;;;4.30;2.50;;;16.10;99.90;;;;;;5058216;28;20168;-90
2021/08/24 10:56:15;;;;;;;3.00;2.70;;;16.10;99.90;;;;;;5057074;28;20555;-90
2021/08/24 10:58:59;;;;;;;3.20;2.70;;;15.90;99.90;;;;;;5023804;28;20205;-90
2021/08/24 11:01:51;;;;;;;3.70;3.10;;;16.00;99.90;;;;;;5056722;28;20753;-90
2021/08/24 11:04:54;;;;;;;3.93;3.30;;;16.00;99.90;;;;;;5048414;28;20193;-90
2021/08/24 11:07:42;;;;;;;3.53;2.93;;;16.00;99.90;;;;;;5056665;28;20193;-89
2021/08/24 11:10:31;;;;;;;3.70;3.20;;;16.00;99.90;;;;;;5062930;28;20165;-89
2021/08/24 11:13:12;;;;;;;3.57;3.23;;;15.90;99.90;;;;;;5062597;28;20169;-89
2021/08/24 11:15:48;;;;;;;5.97;3.60;;;16.00;99.90;;;;;;5056959;28;20197;-90
2021/08/24 11:18:22;;;;;;;3.70;3.33;;;16.30;99.90;;;;;;5056784;28;20232;-89
2021/08/24 11:21:20;;;;;;;4.33;3.93;;;16.90;99.90;;;;;;5056755;28;20215;-89
2021/08/24 11:24:17;;;;;;;3.70;3.37;;;17.20;99.90;;;;;;5057897;28;20162;-90
2021/08/24 11:27:20;;;;;;;3.63;3.33;;;17.30;99.90;;;;;;5052166;28;20177;-90
2021/08/24 11:29:56;;;;;;;4.00;3.70;;;17.00;99.90;;;;;;5058056;28;20165;-90
2021/08/24 11:32:31;;;;;;;4.03;3.37;;;17.10;99.90;;;;;;5057198;28;20623;-90
2021/08/24 11:35:21;;;;;;;3.60;3.30;;;16.70;99.90;;;;;;5056770;28;20194;-90
2021/08/24 11:37:55;;;;;;;4.40;4.00;;;16.90;99.90;;;;;;5056637;28;20199;-89
2021/08/24 11:40:25;;;;;;;4.87;4.23;;;16.80;99.90;;;;;;5056627;28;20659;-90
2021/08/24 11:42:55;;;;;;;4.80;4.30;;;16.70;99.90;;;;;;5058373;28;20231;-90
2021/08/24 11:45:45;;;;;;;4.23;3.83;;;16.70;99.90;;;;;;5056917;28;20261;-87
2021/08/24 11:48:18;;;;;;;4.43;4.03;;;16.80;99.90;;;;;;5057315;28;20198;-87
2021/08/24 11:50:49;;;;;;;4.77;4.37;;;16.80;99.90;;;;;;5058319;28;20520;-88
2021/08/24 11:53:36;;;;;;;4.60;4.20;;;16.90;99.90;;;;;;5057461;28;20254;-87
2021/08/24 11:56:03;;;;;;;4.77;4.27;;;16.80;99.90;;;;;;5057448;28;20250;-90
2021/08/24 11:58:43;;;;;;;5.60;5.03;;;16.80;99.90;;;;;;5058554;28;20536;-87
2021/08/24 12:01:09;;;;;;;5.83;5.10;;;16.60;99.90;;;;;;5058975;28;20248;-90
2021/08/24 12:03:37;;;;;;;5.53;4.43;;;16.90;99.90;;;;;;5058662;28;20576;-90
2021/08/24 12:06:09;;;;;;;5.00;4.60;;;16.90;99.90;;;;;;5057096;28;20173;-90
2021/08/24 12:08:43;;;;;;;5.97;4.47;;;17.10;99.90;;;;;;5057203;28;20197;-90
2021/08/24 12:11:19;;;;;;;5.00;4.50;;;17.00;99.90;;;;;;5057207;28;20201;-90
2021/08/24 12:13:51;;;;;;;5.13;4.40;;;17.00;99.90;;;;;;5061970;28;20165;-90
2021/08/24 12:16:29;;;;;;;5.03;4.40;;;16.90;99.90;;;;;;5069147;28;20177;-91
2021/08/24 12:19:22;;;;;;;6.27;4.43;;;17.00;99.90;;;;;;5066001;28;20682;-90
2021/08/24 12:22:19;;;;;;;5.00;4.50;;;17.10;99.90;;;;;;5055349;28;20188;-90
2021/08/24 12:24:54;;;;;;;5.13;4.63;;;17.10;99.90;;;;;;5056439;28;20190;-90
2021/08/24 12:27:20;;;;;;;4.67;4.27;;;17.20;99.90;;;;;;5055109;28;20201;-90
2021/08/24 12:29:45;;;;;;;4.23;3.83;;;17.50;99.90;;;;;;5055909;28;20186;-88
2021/08/24 12:32:17;;;;;;;4.60;3.73;;;17.90;99.90;;;;;;5055961;28;20185;-87
2021/08/24 12:34:42;;;;;;;3.87;3.50;;;18.00;99.90;;;;;;5056342;28;20204;-88
2021/08/24 12:37:20;;;;;;;6.17;4.37;;;18.00;99.90;;;;;;5063631;28;20268;-87
2021/08/24 12:39:51;;;;;;;4.37;3.73;;;18.00;99.90;;;;;;5066988;28;20201;-90
2021/08/24 12:42:40;;;;;;;3.67;3.37;;;17.90;99.90;;;;;;5070102;28;20179;-90
2021/08/24 12:45:06;;;;;;;4.07;3.73;;;17.80;99.90;;;;;;5063673;28;20521;-89
2021/08/24 12:48:05;;;;;;;4.57;4.10;;;17.90;99.90;;;;;;5055114;28;20199;-90
2021/08/24 12:50:34;;;;;;;4.40;4.00;;;17.90;99.90;;;;;;5055532;28;20174;-90
2021/08/24 12:53:28;;;;;;;3.13;2.83;;;18.00;99.90;;;;;;5055927;28;20234;-90
2021/08/24 12:55:59;;;;;;;3.40;3.10;;;17.90;99.90;;;;;;5055216;28;20205;-90
2021/08/24 12:58:31;;;;;;;3.90;3.40;;;18.10;99.90;;;;;;5055326;28;20199;-88
2021/08/24 13:01:21;;;;;;;3.70;3.20;;;18.20;99.90;;;;;;5057098;28;20168;-87
2021/08/24 13:04:22;;;;;;;4.77;3.60;;;18.10;99.90;;;;;;5055525;28;20171;-90
2021/08/24 13:07:09;;;;;;;5.03;3.50;;;17.70;99.90;;;;;;5044319;28;20194;-88
2021/08/24 13:09:34;;;;;;;4.47;3.90;;;17.70;99.90;;;;;;5056639;28;20262;-87
2021/08/24 13:12:11;;;;;;;4.00;3.60;;;17.70;99.90;;;;;;5055698;28;20684;-87
2021/08/24 13:14:43;;;;;;;3.13;2.93;;;17.80;99.90;;;;;;5059344;28;20194;-87